createdAt,value
2022-09-21T00:01:16.745Z,3.00
2022-09-21T00:03:44.591Z,3.25
2022-09-21T00:06:15.380Z,2.80
2022-09-21T00:08:42.498Z,2.60
2022-09-21T00:11:12.841Z,2.90
2022-09-21T00:13:39.783Z,2.90
2022-09-21T00:16:07.948Z,2.90
2022-09-21T00:18:35.623Z,2.88
2022-09-21T00:21:06.834Z,2.70
2022-09-21T00:23:35.324Z,3.15
2022-09-21T00:26:10.364Z,2.80
2022-09-21T00:28:37.836Z,2.78
2022-09-21T00:31:07.045Z,2.92
2022-09-21T00:33:34.265Z,3.00
2022-09-21T00:36:09.550Z,3.20
2022-09-21T00:38:37.112Z,2.85
2022-09-21T00:41:05.303Z,2.80
2022-09-21T00:43:58.850Z,2.70
2022-09-21T00:46:30.899Z,2.72
2022-09-21T00:48:58.515Z,2.80
2022-09-21T00:51:25.529Z,2.92
2022-09-21T00:54:00.451Z,2.90
2022-09-21T00:56:27.122Z,2.60
2022-09-21T00:58:54.852Z,2.80
2022-09-21T01:01:21.714Z,2.58
2022-09-21T01:03:50.513Z,2.70
2022-09-21T01:06:19.450Z,2.45
2022-09-21T01:08:52.697Z,2.88
2022-09-21T01:11:30.192Z,2.97
2022-09-21T01:14:23.258Z,3.00
2022-09-21T01:17:25.393Z,3.00
2022-09-21T01:20:13.887Z,3.13
2022-09-21T01:23:08.493Z,3.08
2022-09-21T01:25:58.534Z,3.17
2022-09-21T01:28:57.819Z,2.95
2022-09-21T01:31:31.863Z,2.83
2022-09-21T01:34:01.594Z,3.40
2022-09-21T01:36:31.413Z,3.20
2022-09-21T01:39:05.476Z,3.80
2022-09-21T01:41:32.884Z,3.05
2022-09-21T01:44:19.992Z,3.25
2022-09-21T01:46:48.273Z,3.28
2022-09-21T01:49:29.969Z,3.33
2022-09-21T01:52:06.312Z,3.33
2022-09-21T01:54:49.349Z,3.17
2022-09-21T01:57:32.066Z,3.35
2022-09-21T02:00:00.485Z,3.10
2022-09-21T02:02:38.826Z,3.08
2022-09-21T02:05:07.267Z,3.60
2022-09-21T02:07:35.623Z,3.30
2022-09-21T02:10:04.238Z,3.53
2022-09-21T02:12:33.326Z,3.70
2022-09-21T02:15:01.650Z,3.65
2022-09-21T02:17:38.932Z,3.30
2022-09-21T02:20:23.726Z,3.70
2022-09-21T02:22:57.629Z,3.60
2022-09-21T02:25:37.394Z,3.45
2022-09-21T02:28:19.947Z,3.60
2022-09-21T02:30:55.492Z,3.20
2022-09-21T02:33:32.804Z,3.33
2022-09-21T02:36:12.748Z,3.50
2022-09-21T02:38:53.894Z,3.80
2022-09-21T02:41:28.119Z,3.53
2022-09-21T02:44:15.369Z,3.72
2022-09-21T02:46:48.827Z,3.70
2022-09-21T02:49:37.962Z,3.95
2022-09-21T02:52:14.480Z,3.63
2022-09-21T02:54:44.591Z,3.45
2022-09-21T02:57:12.961Z,3.70
2022-09-21T02:59:40.523Z,3.67
2022-09-21T03:02:07.191Z,3.40
2022-09-21T03:04:34.087Z,3.65
2022-09-21T03:07:00.554Z,3.60
2022-09-21T03:09:27.048Z,3.70
2022-09-21T03:11:53.945Z,4.18
2022-09-21T03:14:20.424Z,3.60
2022-09-21T03:16:46.979Z,3.70
2022-09-21T03:19:13.911Z,3.90
2022-09-21T03:21:44.457Z,3.75
2022-09-21T03:24:11.808Z,3.97
2022-09-21T03:26:39.036Z,3.58
2022-09-21T03:29:05.626Z,3.70
2022-09-21T03:31:32.315Z,3.45
2022-09-21T03:33:58.876Z,3.50
2022-09-21T03:36:25.554Z,3.80
2022-09-21T03:38:52.041Z,3.75
2022-09-21T03:41:18.878Z,3.30
2022-09-21T03:43:45.384Z,4.03
2022-09-21T03:46:11.925Z,3.83
2022-09-21T03:48:40.663Z,3.85
2022-09-21T03:51:07.185Z,3.80
2022-09-21T03:53:33.661Z,4.05
2022-09-21T03:56:00.228Z,3.90
2022-09-21T03:58:26.780Z,3.95
2022-09-21T04:00:54.398Z,3.83
2022-09-21T04:03:20.941Z,4.25
2022-09-21T04:05:47.500Z,4.00
2022-09-21T04:08:13.984Z,4.03
2022-09-21T04:10:42.630Z,4.10
2022-09-21T04:13:09.191Z,4.20
2022-09-21T04:15:36.625Z,4.43
2022-09-21T04:18:03.193Z,4.15
2022-09-21T04:20:29.724Z,4.30
2022-09-21T04:22:56.532Z,3.97
2022-09-21T04:25:23.003Z,4.38
2022-09-21T04:27:49.800Z,4.15
2022-09-21T04:30:17.129Z,4.10
2022-09-21T04:32:44.074Z,4.50
2022-09-21T04:35:10.669Z,4.30
2022-09-21T04:37:37.387Z,3.90
2022-09-21T04:40:05.050Z,4.30
2022-09-21T04:42:32.037Z,3.80
2022-09-21T04:44:58.509Z,3.75
2022-09-21T04:47:25.279Z,3.50
2022-09-21T04:49:52.787Z,3.50
2022-09-21T04:52:19.700Z,3.70
2022-09-21T04:54:47.342Z,3.47
2022-09-21T04:57:14.806Z,3.53
2022-09-21T04:59:41.339Z,3.10
2022-09-21T05:02:07.841Z,3.75
2022-09-21T05:04:34.342Z,3.97
2022-09-21T05:07:00.929Z,3.83
2022-09-21T05:09:45.723Z,3.90
2022-09-21T05:12:12.284Z,3.70
2022-09-21T05:14:38.894Z,3.63
2022-09-21T05:17:05.409Z,4.00
2022-09-21T05:19:31.894Z,3.97
2022-09-21T05:21:58.390Z,4.25
2022-09-21T05:24:24.975Z,3.92
2022-09-21T05:26:51.483Z,4.10
2022-09-21T05:29:18.257Z,4.18
2022-09-21T05:31:57.370Z,3.58
2022-09-21T05:34:49.841Z,3.97
2022-09-21T05:38:06.045Z,4.07
2022-09-21T05:40:33.215Z,4.78
2022-09-21T05:43:00.193Z,4.90
2022-09-21T05:45:28.793Z,5.47
2022-09-21T05:48:12.090Z,7.03
2022-09-21T05:50:55.944Z,6.38
2022-09-21T05:53:39.243Z,6.07
2022-09-21T05:56:17.970Z,7.03
2022-09-21T05:58:59.478Z,7.10
2022-09-21T06:01:45.270Z,7.40
2022-09-21T06:04:14.967Z,5.40
2022-09-21T06:06:41.506Z,5.10
2022-09-21T06:09:08.162Z,5.03
2022-09-21T06:11:37.797Z,5.30
2022-09-21T06:14:04.534Z,4.80
2022-09-21T06:16:41.289Z,4.10
2022-09-21T06:19:11.601Z,3.80
2022-09-21T06:24:04.924Z,3.50
2022-09-21T06:26:31.611Z,3.78
2022-09-21T06:28:58.199Z,3.70
2022-09-21T06:31:26.391Z,4.05
2022-09-21T06:33:52.888Z,3.80
2022-09-21T06:36:19.415Z,4.45
2022-09-21T06:38:45.948Z,4.30
2022-09-21T06:41:14.383Z,4.50
2022-09-21T06:43:42.759Z,3.97
2022-09-21T06:46:09.288Z,4.32
2022-09-21T06:48:35.844Z,4.82
2022-09-21T06:51:04.662Z,4.00
2022-09-21T06:53:33.329Z,3.78
2022-09-21T06:56:07.822Z,3.80
2022-09-21T06:58:35.403Z,3.50
2022-09-21T07:01:09.986Z,2.97
2022-09-21T07:03:37.348Z,2.95
2022-09-21T07:06:04.851Z,3.03
2022-09-21T07:11:18.688Z,3.20
2022-09-21T07:13:45.467Z,2.78
2022-09-21T07:16:12.895Z,3.13
2022-09-21T07:18:44.254Z,3.10
2022-09-21T07:21:11.723Z,3.13
2022-09-21T07:23:38.448Z,2.88
2022-09-21T07:26:12.132Z,3.22
2022-09-21T07:28:39.154Z,2.90
2022-09-21T07:31:12.028Z,2.75
2022-09-21T07:33:40.142Z,3.00
2022-09-21T07:36:10.596Z,2.65
2022-09-21T07:38:42.688Z,2.50
2022-09-21T07:41:12.927Z,2.40
2022-09-21T07:43:40.377Z,2.50
2022-09-21T07:46:09.345Z,2.42
2022-09-21T07:48:36.150Z,2.30
2022-09-21T07:51:08.391Z,2.30
2022-09-21T07:53:36.404Z,1.70
2022-09-21T07:56:11.535Z,2.10
2022-09-21T07:58:57.036Z,2.53
2022-09-21T08:01:24.824Z,1.20
2022-09-21T08:03:53.450Z,1.27
2022-09-21T08:06:21.201Z,1.20
2022-09-21T08:08:48.398Z,1.20
2022-09-21T08:11:16.698Z,1.10
2022-09-21T08:13:43.294Z,1.08
2022-09-21T08:16:10.355Z,1.00
2022-09-21T08:18:39.599Z,1.20
2022-09-21T08:21:07.493Z,1.00
2022-09-21T08:23:34.390Z,0.90
2022-09-21T08:26:03.442Z,0.90
2022-09-21T08:28:33.891Z,1.05
2022-09-21T08:31:01.329Z,1.10
2022-09-21T08:33:29.636Z,0.90
2022-09-21T08:35:59.284Z,1.00
2022-09-21T08:38:26.955Z,0.90
2022-09-21T08:40:54.264Z,0.82
2022-09-21T08:43:36.087Z,0.90
2022-09-21T08:46:10.997Z,0.82
2022-09-21T08:48:48.382Z,0.80
2022-09-21T08:51:22.833Z,0.60
2022-09-21T08:53:53.821Z,0.60
2022-09-21T08:56:22.016Z,0.60
2022-09-21T08:58:48.774Z,0.75
2022-09-21T09:01:50.645Z,0.82
2022-09-21T09:04:34.638Z,0.80
2022-09-21T09:07:19.315Z,1.00
2022-09-21T09:10:03.811Z,1.00
2022-09-21T09:12:34.161Z,0.93
2022-09-21T09:15:19.101Z,1.10
2022-09-21T09:17:48.475Z,1.00
2022-09-21T09:20:28.002Z,1.10
2022-09-21T09:23:02.473Z,0.90
2022-09-21T09:25:40.471Z,1.20
2022-09-21T09:28:20.477Z,1.08
2022-09-21T09:33:21.970Z,0.90
2022-09-21T09:35:52.793Z,0.90
2022-09-21T09:38:19.396Z,0.88
2022-09-21T09:40:55.082Z,0.90
2022-09-21T09:43:41.678Z,0.90
2022-09-21T09:46:17.627Z,0.85
2022-09-21T09:49:12.196Z,0.75
2022-09-21T09:51:40.643Z,0.77
2022-09-21T09:54:15.075Z,0.80
2022-09-21T09:56:42.674Z,0.73
2022-09-21T09:59:30.586Z,0.80
2022-09-21T10:02:04.870Z,0.70
2022-09-21T10:04:32.381Z,0.63
2022-09-21T10:06:58.941Z,0.60
2022-09-21T10:09:35.792Z,0.40
2022-09-21T10:12:25.636Z,0.60
2022-09-21T10:14:54.802Z,0.50
2022-09-21T10:17:23.479Z,0.45
2022-09-21T10:19:59.543Z,0.60
2022-09-21T10:22:26.330Z,0.50
2022-09-21T10:24:54.730Z,0.50
2022-09-21T10:27:28.629Z,0.40
2022-09-21T10:29:55.390Z,0.30
2022-09-21T10:32:23.523Z,0.40
2022-09-21T10:35:06.085Z,0.40
2022-09-21T10:37:35.687Z,0.40
2022-09-21T10:40:02.407Z,0.40
2022-09-21T10:42:36.394Z,0.40
2022-09-21T10:45:21.228Z,0.40
2022-09-21T10:47:55.302Z,0.40
2022-09-21T10:50:28.653Z,0.43
2022-09-21T10:53:02.062Z,0.40
2022-09-21T10:55:31.993Z,0.40
2022-09-21T10:58:00.008Z,0.43
2022-09-21T11:00:31.834Z,0.32
2022-09-21T11:03:01.226Z,0.30
2022-09-21T11:05:34.049Z,0.30
2022-09-21T11:08:21.466Z,0.30
2022-09-21T11:11:08.681Z,0.30
2022-09-21T11:13:47.977Z,0.30
2022-09-21T11:16:36.914Z,0.30
2022-09-21T11:19:06.469Z,0.30
2022-09-21T11:21:50.054Z,0.30
2022-09-21T11:24:36.108Z,0.30
2022-09-21T11:27:11.257Z,0.30
2022-09-21T11:30:04.797Z,0.40
2022-09-21T11:32:52.359Z,0.40
2022-09-21T11:35:35.505Z,0.40
2022-09-21T11:38:34.686Z,0.50
2022-09-21T11:41:44.115Z,0.70
2022-09-21T11:44:19.094Z,0.50
2022-09-21T11:47:19.952Z,0.28
2022-09-21T11:50:07.790Z,0.20
2022-09-21T11:53:14.434Z,0.30
2022-09-21T11:55:59.584Z,0.30
2022-09-21T11:58:53.795Z,0.30
2022-09-21T12:01:37.525Z,0.20
2022-09-21T12:04:28.049Z,0.20
2022-09-21T12:07:06.932Z,0.30
2022-09-21T12:10:11.149Z,0.20
2022-09-21T12:12:46.793Z,0.20
2022-09-21T12:15:26.680Z,0.20
2022-09-21T12:17:53.579Z,0.28
2022-09-21T12:20:38.388Z,0.22
2022-09-21T12:23:12.890Z,0.30
2022-09-21T12:25:45.424Z,0.32
2022-09-21T12:28:29.987Z,0.30
2022-09-21T12:31:05.998Z,0.20
2022-09-21T12:33:40.567Z,0.22
2022-09-21T12:36:22.770Z,0.30
2022-09-21T12:39:07.078Z,0.50
2022-09-21T12:41:43.531Z,0.30
2022-09-21T12:44:20.971Z,0.20
2022-09-21T12:46:55.538Z,0.40
2022-09-21T12:49:30.299Z,0.20
2022-09-21T12:52:03.269Z,0.22
2022-09-21T12:54:50.131Z,0.30
2022-09-21T12:58:10.899Z,0.25
2022-09-21T13:03:19.456Z,0.30
2022-09-21T13:06:19.794Z,0.50
2022-09-21T13:11:21.972Z,0.20
2022-09-21T13:14:01.310Z,0.30
2022-09-21T13:16:31.926Z,0.20
2022-09-21T13:19:01.349Z,0.30
2022-09-21T13:21:30.171Z,0.30
2022-09-21T13:24:01.459Z,0.30
2022-09-21T13:26:36.898Z,0.30
2022-09-21T13:29:22.124Z,0.40
2022-09-21T13:31:59.353Z,0.40
2022-09-21T13:34:37.001Z,1.20
2022-09-21T13:37:15.812Z,0.30
2022-09-21T13:39:48.918Z,0.30
2022-09-21T13:42:31.021Z,0.30
2022-09-21T13:45:22.925Z,0.30
2022-09-21T13:48:00.041Z,0.40
2022-09-21T13:50:31.498Z,0.30
2022-09-21T13:53:02.774Z,0.30
2022-09-21T13:55:33.836Z,0.20
2022-09-21T13:58:07.298Z,0.30
2022-09-21T14:00:54.259Z,0.30
2022-09-21T14:03:25.251Z,0.40
2022-09-21T14:06:01.052Z,0.40
2022-09-21T14:08:33.994Z,0.70
2022-09-21T14:11:08.593Z,0.50
2022-09-21T14:13:41.910Z,0.40
2022-09-21T14:16:33.470Z,0.38
2022-09-21T14:19:02.115Z,0.40
2022-09-21T14:21:29.855Z,0.30
2022-09-21T14:24:35.290Z,0.40
2022-09-21T14:27:13.441Z,0.68
2022-09-21T14:29:53.051Z,0.45
2022-09-21T14:32:23.543Z,0.50
2022-09-21T14:34:57.093Z,0.40
2022-09-21T14:37:31.621Z,0.45
2022-09-21T14:40:00.941Z,0.50
2022-09-21T14:42:29.128Z,0.50
2022-09-21T14:44:58.841Z,0.50
2022-09-21T14:47:45.304Z,0.47
2022-09-21T14:50:25.796Z,0.47
2022-09-21T14:53:29.234Z,0.30
2022-09-21T14:56:22.863Z,0.30
2022-09-21T14:59:07.999Z,0.40
2022-09-21T15:01:37.803Z,0.40
2022-09-21T15:04:52.522Z,0.50
2022-09-21T15:07:48.578Z,0.60
2022-09-21T15:10:54.524Z,0.80
2022-09-21T15:13:36.455Z,0.65
2022-09-21T15:16:38.472Z,0.60
2022-09-21T15:19:18.418Z,0.90
2022-09-21T15:21:47.166Z,0.93
2022-09-21T15:24:19.908Z,0.80
2022-09-21T15:26:49.875Z,0.90
2022-09-21T15:29:34.559Z,1.00
2022-09-21T15:32:01.625Z,0.98
2022-09-21T15:34:28.527Z,0.80
2022-09-21T15:37:06.482Z,0.60
2022-09-21T15:39:33.131Z,0.50
2022-09-21T15:42:24.223Z,0.50
2022-09-21T15:45:05.972Z,0.40
2022-09-21T15:47:33.287Z,0.40
2022-09-21T15:49:59.829Z,0.30
2022-09-21T15:52:38.370Z,0.40
2022-09-21T15:55:16.020Z,0.40
2022-09-21T15:57:43.626Z,0.45
2022-09-21T16:00:16.364Z,0.40
2022-09-21T16:03:04.695Z,0.40
2022-09-21T16:05:44.421Z,0.43
2022-09-21T16:08:29.939Z,0.28
2022-09-21T16:11:26.375Z,0.55
2022-09-21T16:14:30.559Z,0.40
2022-09-21T16:17:09.172Z,0.40
2022-09-21T16:19:50.930Z,0.85
2022-09-21T16:22:37.728Z,0.70
2022-09-21T16:25:21.988Z,0.50
2022-09-21T16:27:57.620Z,0.60
2022-09-21T16:30:45.349Z,0.60
2022-09-21T16:33:33.485Z,0.70
2022-09-21T16:36:01.757Z,0.75
2022-09-21T16:38:28.289Z,0.93
2022-09-21T16:40:57.104Z,1.10
2022-09-21T16:43:24.265Z,1.00
2022-09-21T16:45:50.787Z,1.10
2022-09-21T16:48:17.326Z,1.00
2022-09-21T16:50:44.171Z,1.20
2022-09-21T16:53:11.181Z,1.20
2022-09-21T16:55:38.506Z,1.20
2022-09-21T16:58:05.460Z,1.25
2022-09-21T17:00:39.123Z,1.20
2022-09-21T17:03:05.842Z,1.30
2022-09-21T17:05:32.551Z,1.20
2022-09-21T17:08:00.467Z,1.10
2022-09-21T17:10:55.076Z,1.20
2022-09-21T17:13:22.521Z,0.90
2022-09-21T17:15:49.798Z,0.90
2022-09-21T17:18:22.088Z,1.40
2022-09-21T17:20:49.432Z,1.20
2022-09-21T17:23:16.529Z,0.98
2022-09-21T17:25:44.727Z,0.95
2022-09-21T17:28:15.230Z,0.80
2022-09-21T17:30:42.876Z,1.00
2022-09-21T17:33:10.806Z,0.90
2022-09-21T17:35:39.486Z,1.00
2022-09-21T17:38:12.438Z,1.10
2022-09-21T17:40:42.549Z,1.00
2022-09-21T17:43:41.054Z,0.95
2022-09-21T17:46:22.345Z,1.08
2022-09-21T17:48:49.196Z,1.20
2022-09-21T17:51:36.225Z,1.30
2022-09-21T17:54:03.195Z,1.30
2022-09-21T17:56:49.593Z,1.50
2022-09-21T17:59:37.463Z,1.30
2022-09-21T18:02:21.188Z,1.52
2022-09-21T18:04:56.736Z,1.50
2022-09-21T18:07:25.114Z,1.25
2022-09-21T18:09:52.138Z,0.98
2022-09-21T18:12:28.057Z,1.05
2022-09-21T18:15:12.682Z,0.90
2022-09-21T18:18:05.396Z,0.90
2022-09-21T18:20:47.900Z,0.90
2022-09-21T18:23:17.310Z,0.93
2022-09-21T18:25:48.596Z,1.10
2022-09-21T18:28:23.753Z,1.30
2022-09-21T18:30:58.660Z,1.30
2022-09-21T18:33:35.605Z,1.30
2022-09-21T18:36:51.716Z,1.40
2022-09-21T18:39:21.571Z,1.10
2022-09-21T18:42:04.285Z,1.20
2022-09-21T18:45:06.170Z,0.90
2022-09-21T18:47:46.622Z,1.00
2022-09-21T18:50:34.026Z,1.00
2022-09-21T18:53:22.416Z,0.90
2022-09-21T18:55:49.250Z,0.90
2022-09-21T18:58:16.123Z,1.00
2022-09-21T19:00:43.129Z,1.20
2022-09-21T19:03:18.111Z,1.05
2022-09-21T19:05:56.420Z,0.90
2022-09-21T19:08:31.900Z,1.00
2022-09-21T19:11:13.362Z,0.90
2022-09-21T19:14:04.575Z,1.23
2022-09-21T19:16:38.770Z,1.00
2022-09-21T19:19:13.479Z,0.95
2022-09-21T19:22:15.432Z,1.02
2022-09-21T19:25:19.889Z,1.10
2022-09-21T19:28:21.421Z,1.20
2022-09-21T19:31:00.077Z,0.98
2022-09-21T19:33:49.582Z,1.20
2022-09-21T19:36:17.568Z,1.00
2022-09-21T19:38:44.353Z,1.20
2022-09-21T19:41:47.822Z,1.05
2022-09-21T19:44:17.389Z,1.00
2022-09-21T19:46:53.561Z,1.20
2022-09-21T19:49:21.118Z,1.00
2022-09-21T19:51:53.021Z,1.17
2022-09-21T19:54:40.814Z,0.90
2022-09-21T19:57:34.760Z,1.00
2022-09-21T20:00:02.616Z,0.93
2022-09-21T20:02:51.842Z,1.02
2022-09-21T20:05:28.286Z,0.90
2022-09-21T20:08:04.377Z,1.00
2022-09-21T20:10:30.923Z,0.90
2022-09-21T20:13:23.671Z,0.90
2022-09-21T20:16:20.284Z,1.00
2022-09-21T20:19:06.156Z,1.00
2022-09-21T20:21:41.562Z,1.02
2022-09-21T20:24:22.314Z,0.80
2022-09-21T20:26:50.963Z,0.85
2022-09-21T20:29:19.651Z,0.98
2022-09-21T20:31:48.598Z,0.80
2022-09-21T20:34:15.546Z,0.90
2022-09-21T20:36:42.098Z,0.80
2022-09-21T20:39:08.598Z,1.00
2022-09-21T20:41:35.169Z,0.70
2022-09-21T20:44:02.053Z,0.80
2022-09-21T20:46:28.603Z,0.80
2022-09-21T20:49:05.263Z,0.73
2022-09-21T20:51:34.025Z,0.75
2022-09-21T20:54:04.292Z,0.77
2022-09-21T20:58:57.961Z,0.70
2022-09-21T21:01:25.055Z,0.88
2022-09-21T21:04:03.111Z,0.60
2022-09-21T21:06:33.737Z,0.75
2022-09-21T21:09:00.585Z,0.70
2022-09-21T21:11:30.373Z,0.70
2022-09-21T21:13:58.240Z,0.60
2022-09-21T21:16:24.942Z,0.65
2022-09-21T21:18:51.533Z,0.60
2022-09-21T21:21:18.050Z,0.57
2022-09-21T21:24:07.311Z,0.60
2022-09-21T21:27:00.378Z,0.50
2022-09-21T21:29:21.438Z,0.50
2022-09-21T21:31:49.326Z,0.50
2022-09-21T21:34:16.224Z,0.55
2022-09-21T21:36:43.364Z,0.45
2022-09-21T21:39:10.741Z,0.50
2022-09-21T21:41:37.247Z,0.50
2022-09-21T21:44:03.924Z,0.55
2022-09-21T21:46:30.506Z,0.50
2022-09-21T21:48:57.113Z,0.57
2022-09-21T21:51:23.598Z,0.50
2022-09-21T21:53:53.370Z,0.50
2022-09-21T21:56:23.285Z,0.40
2022-09-21T21:58:54.333Z,0.50
2022-09-21T22:01:26.876Z,0.52
2022-09-21T22:03:56.093Z,0.50
2022-09-21T22:06:23.755Z,0.30
2022-09-21T22:08:51.723Z,0.50
2022-09-21T22:11:19.876Z,0.50
2022-09-21T22:13:47.246Z,0.50
2022-09-21T22:16:19.330Z,0.40
2022-09-21T22:18:46.353Z,0.50
2022-09-21T22:21:15.831Z,0.50
2022-09-21T22:23:43.024Z,0.40
2022-09-21T22:26:15.439Z,0.60
2022-09-21T22:28:52.182Z,0.38
2022-09-21T22:31:21.245Z,0.40
2022-09-21T22:33:48.972Z,0.40
2022-09-21T22:36:18.088Z,0.40
2022-09-21T22:38:46.190Z,0.50
2022-09-21T22:41:17.001Z,0.50
2022-09-21T22:43:44.670Z,0.40
2022-09-21T22:46:11.978Z,0.43
2022-09-21T22:48:38.710Z,0.43
2022-09-21T22:51:05.771Z,0.50
2022-09-21T22:53:32.648Z,0.50
2022-09-21T22:56:11.409Z,0.40
2022-09-21T22:58:41.182Z,0.40
2022-09-21T23:01:11.778Z,0.50
2022-09-21T23:03:40.432Z,0.40
2022-09-21T23:06:10.022Z,0.50
2022-09-21T23:08:36.886Z,0.50
2022-09-21T23:11:15.256Z,0.50
2022-09-21T23:13:42.673Z,0.60
2022-09-21T23:16:12.122Z,0.43
2022-09-21T23:18:40.088Z,0.50
2022-09-21T23:21:11.025Z,0.70
2022-09-21T23:23:37.561Z,0.40
2022-09-21T23:26:32.033Z,0.40
2022-09-21T23:29:01.077Z,0.50
2022-09-21T23:31:28.627Z,0.47
2022-09-21T23:33:58.891Z,0.40
2022-09-21T23:38:53.970Z,0.43
2022-09-21T23:41:26.435Z,0.40
2022-09-21T23:43:53.419Z,0.40
2022-09-21T23:46:22.841Z,0.45
2022-09-21T23:48:49.487Z,0.40
2022-09-21T23:51:16.930Z,0.40
2022-09-21T23:53:43.950Z,0.60
2022-09-21T23:56:14.154Z,0.40
